createdAt,value
2018-07-09T00:00:13.506Z,71.34
2018-07-09T00:01:13.501Z,71.53
2018-07-09T00:02:13.496Z,71.43
2018-07-09T00:03:13.519Z,71.43
2018-07-09T00:04:13.502Z,72.39
2018-07-09T00:05:13.492Z,72.68
2018-07-09T00:06:13.506Z,73.55
2018-07-09T00:07:13.490Z,74.13
2018-07-09T00:08:13.498Z,73.84
2018-07-09T00:09:13.483Z,73.84
2018-07-09T00:10:13.481Z,73.55
2018-07-09T00:11:13.488Z,74.32
2018-07-09T00:12:13.490Z,74.19
2018-07-09T00:13:13.483Z,74.57
2018-07-09T00:14:13.473Z,74.48
2018-07-09T00:15:13.472Z,74.29
2018-07-09T00:16:13.477Z,74.03
2018-07-09T00:17:13.473Z,74.38
2018-07-09T00:18:13.469Z,74.13
2018-07-09T00:19:13.505Z,74.19
2018-07-09T00:20:13.460Z,74.48
2018-07-09T00:21:13.467Z,75.15
2018-07-09T00:22:13.456Z,75.15
2018-07-09T00:23:13.457Z,74.96
2018-07-09T00:24:13.452Z,75.54
2018-07-09T00:25:13.452Z,75.34
2018-07-09T00:26:13.475Z,75.63
2018-07-09T00:27:13.446Z,76.01
2018-07-09T00:28:13.451Z,72.07
2018-07-09T00:29:13.473Z,71.40
2018-07-09T00:30:13.466Z,70.53
2018-07-09T00:31:13.445Z,70.92
2018-07-09T00:32:13.493Z,71.30
2018-07-09T00:33:13.433Z,70.82
2018-07-09T00:34:13.439Z,70.56
2018-07-09T00:35:13.435Z,71.24
2018-07-09T00:36:13.425Z,71.20
2018-07-09T00:37:13.428Z,71.20
2018-07-09T00:38:13.423Z,71.30
2018-07-09T00:39:13.424Z,71.49
2018-07-09T00:40:13.417Z,71.20
2018-07-09T00:41:13.421Z,71.30
2018-07-09T00:42:13.464Z,71.20
2018-07-09T00:43:13.412Z,71.59
2018-07-09T00:44:13.417Z,71.88
2018-07-09T00:45:13.414Z,72.17
2018-07-09T00:46:13.406Z,72.17
2018-07-09T00:47:13.413Z,72.32
2018-07-09T00:48:13.408Z,73.03
2018-07-09T00:49:13.399Z,73.00
2018-07-09T00:50:13.401Z,73.19
2018-07-09T00:51:13.406Z,73.28
2018-07-09T00:52:13.430Z,73.67
2018-07-09T00:53:13.397Z,74.34
2018-07-09T00:54:13.396Z,74.44
2018-07-09T00:55:13.393Z,74.92
2018-07-09T00:56:13.383Z,74.54
2018-07-09T00:57:13.381Z,75.31
2018-07-09T00:58:13.378Z,75.11
2018-07-09T00:59:13.414Z,75.02
2018-07-09T01:00:13.381Z,75.59
2018-07-09T01:01:13.373Z,75.40
2018-07-09T01:02:13.403Z,75.02
2018-07-09T01:03:13.368Z,74.92
2018-07-09T01:04:13.363Z,75.02
2018-07-09T01:05:13.364Z,75.69
2018-07-09T01:06:13.360Z,75.59
2018-07-09T01:07:13.358Z,74.44
2018-07-09T01:08:13.353Z,74.82
2018-07-09T01:09:13.354Z,74.82
2018-07-09T01:10:13.352Z,74.05
2018-07-09T01:11:13.403Z,74.34
2018-07-09T01:12:13.346Z,73.77
2018-07-09T01:13:13.344Z,72.03
2018-07-09T01:14:13.345Z,72.32
2018-07-09T01:15:13.338Z,72.13
2018-07-09T01:16:13.336Z,70.68
2018-07-09T01:17:13.333Z,71.17
2018-07-09T01:18:13.333Z,70.98
2018-07-09T01:19:13.328Z,71.55
2018-07-09T01:20:13.331Z,72.71
2018-07-09T01:21:13.324Z,71.75
2018-07-09T01:22:13.321Z,71.84
2018-07-09T01:23:13.318Z,71.08
2018-07-09T01:24:13.323Z,71.36
2018-07-09T01:25:13.312Z,73.06
2018-07-09T01:26:13.311Z,73.73
2018-07-09T01:27:13.312Z,73.25
2018-07-09T01:28:13.311Z,73.06
2018-07-09T01:29:13.312Z,73.35
2018-07-09T01:30:13.312Z,74.69
2018-07-09T01:31:13.300Z,75.17
2018-07-09T01:32:13.298Z,74.60
2018-07-09T01:33:13.291Z,69.79
2018-07-09T01:34:13.288Z,69.89
2018-07-09T01:35:13.322Z,70.84
2018-07-09T01:36:13.282Z,71.42
2018-07-09T01:37:13.284Z,72.67
2018-07-09T01:38:13.284Z,71.71
2018-07-09T01:39:13.276Z,72.19
2018-07-09T01:40:13.280Z,72.09
2018-07-09T01:41:13.275Z,72.38
2018-07-09T01:42:13.269Z,71.52
2018-07-09T01:43:13.263Z,71.04
2018-07-09T01:44:13.257Z,70.94
2018-07-09T01:45:13.258Z,70.37
2018-07-09T01:46:13.253Z,70.84
2018-07-09T01:47:13.251Z,71.42
2018-07-09T01:48:13.250Z,71.14
2018-07-09T01:49:13.247Z,71.81
2018-07-09T01:50:13.249Z,71.42
2018-07-09T01:51:13.239Z,72.00
2018-07-09T01:52:13.236Z,72.09
2018-07-09T01:53:13.233Z,72.58
2018-07-09T01:54:13.234Z,73.35
2018-07-09T01:55:13.262Z,73.83
2018-07-09T01:56:13.223Z,73.83
2018-07-09T01:57:13.228Z,73.73
2018-07-09T01:58:13.218Z,73.83
2018-07-09T01:59:13.215Z,73.73
2018-07-09T02:00:13.218Z,74.27
2018-07-09T02:01:13.216Z,74.65
2018-07-09T02:02:13.216Z,74.37
2018-07-09T02:03:13.202Z,74.85
2018-07-09T02:04:13.206Z,75.04
2018-07-09T02:05:13.226Z,75.13
2018-07-09T02:06:13.197Z,75.42
2018-07-09T02:07:13.195Z,75.90
2018-07-09T02:08:13.191Z,76.29
2018-07-09T02:09:13.185Z,76.96
2018-07-09T02:10:13.186Z,75.42
2018-07-09T02:11:13.178Z,75.04
2018-07-09T02:12:13.181Z,75.62
2018-07-09T02:13:13.173Z,75.04
2018-07-09T02:14:13.169Z,75.23
2018-07-09T02:15:13.193Z,75.04
2018-07-09T02:16:13.167Z,74.65
2018-07-09T02:17:13.160Z,74.17
2018-07-09T02:18:13.162Z,73.31
2018-07-09T02:19:13.159Z,73.02
2018-07-09T02:20:13.165Z,72.64
2018-07-09T02:21:13.150Z,73.60
2018-07-09T02:22:13.144Z,73.79
2018-07-09T02:23:13.143Z,74.46
2018-07-09T02:24:13.144Z,74.27
2018-07-09T02:25:13.164Z,74.46
2018-07-09T02:26:13.133Z,74.94
2018-07-09T02:27:13.138Z,73.69
2018-07-09T02:28:13.127Z,73.79
2018-07-09T02:29:13.132Z,71.58
2018-07-09T02:30:13.126Z,72.25
2018-07-09T02:31:13.127Z,72.54
2018-07-09T02:32:13.122Z,72.73
2018-07-09T02:33:13.161Z,71.29
2018-07-09T02:34:13.118Z,71.96
2018-07-09T02:35:13.128Z,72.92
2018-07-09T02:36:13.105Z,73.11
2018-07-09T02:37:13.101Z,72.73
2018-07-09T02:38:13.099Z,72.54
2018-07-09T02:39:13.095Z,70.62
2018-07-09T02:40:13.093Z,69.37
2018-07-09T02:41:13.088Z,71.19
2018-07-09T02:42:13.092Z,71.00
2018-07-09T02:43:13.085Z,71.29
2018-07-09T02:44:13.079Z,71.67
2018-07-09T02:45:13.097Z,71.58
2018-07-09T02:46:13.079Z,72.25
2018-07-09T02:47:13.080Z,71.29
2018-07-09T02:48:13.072Z,71.19
2018-07-09T02:49:13.124Z,71.10
2018-07-09T02:50:13.075Z,71.87
2018-07-09T02:51:13.069Z,71.77
2018-07-09T02:52:13.125Z,71.10
2018-07-09T02:53:13.058Z,69.95
2018-07-09T02:54:13.176Z,70.14
2018-07-09T02:55:13.065Z,71.19
2018-07-09T02:56:13.161Z,70.72
2018-07-09T02:57:13.039Z,70.78
2018-07-09T02:58:13.043Z,71.16
2018-07-09T02:59:13.037Z,71.45
2018-07-09T03:00:13.027Z,71.64
2018-07-09T03:01:13.202Z,71.16
2018-07-09T03:02:13.029Z,71.25
2018-07-09T03:03:13.033Z,71.25
2018-07-09T03:04:13.029Z,71.64
2018-07-09T03:05:13.034Z,70.87
2018-07-09T03:06:13.013Z,71.25
2018-07-09T03:07:13.010Z,71.16
2018-07-09T03:08:13.009Z,71.45
2018-07-09T03:09:13.005Z,71.16
2018-07-09T03:10:12.997Z,71.16
2018-07-09T03:11:12.994Z,71.35
2018-07-09T03:12:12.996Z,71.35
2018-07-09T03:13:12.996Z,71.45
2018-07-09T03:14:12.985Z,70.97
2018-07-09T03:15:13.004Z,71.25
2018-07-09T03:16:12.977Z,71.16
2018-07-09T03:17:12.983Z,71.35
2018-07-09T03:18:12.976Z,71.06
2018-07-09T03:19:13.081Z,71.35
2018-07-09T03:20:12.968Z,71.55
2018-07-09T03:21:12.962Z,71.73
2018-07-09T03:22:12.958Z,69.72
2018-07-09T03:23:12.955Z,70.68
2018-07-09T03:24:12.949Z,71.16
2018-07-09T03:25:12.969Z,68.57
2018-07-09T03:26:12.951Z,68.18
2018-07-09T03:27:12.944Z,68.08
2018-07-09T03:28:12.941Z,70.39
2018-07-09T03:29:12.933Z,70.68
2018-07-09T03:30:12.939Z,70.29
2018-07-09T03:31:12.932Z,70.29
2018-07-09T03:32:12.929Z,70.78
2018-07-09T03:33:12.925Z,70.39
2018-07-09T03:34:12.919Z,70.68
2018-07-09T03:35:12.915Z,70.39
2018-07-09T03:36:12.907Z,70.39
2018-07-09T03:37:12.905Z,68.76
2018-07-09T03:38:12.902Z,69.91
2018-07-09T03:39:12.899Z,70.68
2018-07-09T03:40:12.899Z,71.35
2018-07-09T03:41:12.898Z,70.20
2018-07-09T03:42:12.890Z,71.06
2018-07-09T03:43:12.889Z,70.20
2018-07-09T03:44:12.882Z,70.39
2018-07-09T03:45:12.889Z,71.06
2018-07-09T03:46:12.880Z,70.58
2018-07-09T03:47:12.870Z,68.28
2018-07-09T03:48:12.872Z,68.76
2018-07-09T03:49:12.863Z,69.14
2018-07-09T03:50:12.860Z,65.30
2018-07-09T03:51:12.863Z,66.07
2018-07-09T03:52:12.859Z,67.03
2018-07-09T03:53:12.850Z,68.85
2018-07-09T03:54:12.854Z,70.29
2018-07-09T03:55:12.853Z,70.29
2018-07-09T03:56:12.838Z,71.06
2018-07-09T03:57:12.839Z,70.29
2018-07-09T03:58:12.832Z,71.55
2018-07-09T03:59:12.833Z,71.64
2018-07-09T04:00:12.832Z,70.01
2018-07-09T04:01:12.830Z,70.58
2018-07-09T04:02:12.828Z,70.49
2018-07-09T04:03:12.827Z,71.25
2018-07-09T04:04:12.814Z,69.24
2018-07-09T04:05:12.815Z,69.62
2018-07-09T04:06:12.819Z,69.53
2018-07-09T04:07:12.815Z,69.91
2018-07-09T04:08:12.795Z,68.18
2018-07-09T04:09:12.798Z,68.57
2018-07-09T04:10:12.792Z,68.57
2018-07-09T04:11:12.802Z,66.84
2018-07-09T04:12:12.788Z,66.55
2018-07-09T04:13:12.789Z,64.92
2018-07-09T04:14:12.784Z,66.84
2018-07-09T04:15:12.773Z,66.16
2018-07-09T04:16:12.780Z,65.30
2018-07-09T04:17:12.765Z,65.20
2018-07-09T04:18:12.765Z,65.88
2018-07-09T04:19:12.760Z,66.46
2018-07-09T04:20:12.754Z,66.07
2018-07-09T04:21:12.791Z,65.30
2018-07-09T04:22:12.757Z,65.49
2018-07-09T04:23:12.757Z,65.11
2018-07-09T04:24:12.742Z,66.64
2018-07-09T04:25:12.738Z,66.49
2018-07-09T04:26:12.761Z,65.27
2018-07-09T04:27:12.735Z,63.70
2018-07-09T04:28:12.728Z,61.61
2018-07-09T04:29:12.726Z,60.52
2018-07-09T04:30:12.723Z,59.68
2018-07-09T04:31:12.724Z,58.84
2018-07-09T04:32:12.723Z,56.84
2018-07-09T04:33:12.716Z,56.07
2018-07-09T04:34:12.738Z,55.81
2018-07-09T04:35:12.717Z,55.16
2018-07-09T04:36:12.709Z,53.64
2018-07-09T04:37:12.710Z,52.97
2018-07-09T04:38:12.709Z,52.89
2018-07-09T04:39:12.721Z,52.61
2018-07-09T04:40:12.705Z,51.86
2018-07-09T04:41:12.711Z,53.11
2018-07-09T04:42:12.709Z,51.68
2018-07-09T04:43:12.745Z,50.14
2018-07-09T04:44:12.707Z,49.97
2018-07-09T04:45:12.714Z,49.10
2018-07-09T04:46:12.707Z,47.45
2018-07-09T04:47:12.716Z,47.36
2018-07-09T04:48:12.710Z,47.55
2018-07-09T04:49:12.719Z,47.19
2018-07-09T04:50:12.726Z,46.12
2018-07-09T04:51:12.714Z,46.22
2018-07-09T04:52:12.720Z,46.24
2018-07-09T04:53:12.726Z,46.62
2018-07-09T04:54:12.730Z,46.62
2018-07-09T04:55:12.736Z,48.54
2018-07-09T04:56:12.731Z,49.44
2018-07-09T04:57:12.733Z,48.27
2018-07-09T04:58:12.735Z,48.66
2018-07-09T04:59:12.747Z,48.85
2018-07-09T05:00:12.742Z,51.37
2018-07-09T05:01:12.747Z,53.41
2018-07-09T05:02:12.754Z,54.15
2018-07-09T05:03:12.753Z,54.05
2018-07-09T05:04:12.762Z,53.86
2018-07-09T05:05:12.762Z,54.27
2018-07-09T05:06:12.766Z,53.41
2018-07-09T05:07:12.778Z,53.19
2018-07-09T05:08:12.783Z,54.47
2018-07-09T05:09:12.782Z,53.21
2018-07-09T05:10:12.800Z,53.04
2018-07-09T05:11:12.794Z,51.72
2018-07-09T05:12:12.794Z,50.96
2018-07-09T05:13:12.813Z,50.09
2018-07-09T05:14:12.801Z,49.54
2018-07-09T05:15:12.803Z,49.46
2018-07-09T05:16:12.811Z,47.62
2018-07-09T05:17:12.822Z,46.28
2018-07-09T05:18:12.815Z,45.24
2018-07-09T05:19:12.820Z,45.31
2018-07-09T05:20:12.824Z,46.45
2018-07-09T05:21:12.827Z,46.94
2018-07-09T05:22:12.839Z,47.40
2018-07-09T05:23:12.847Z,48.85
2018-07-09T05:24:12.835Z,48.76
2018-07-09T05:25:12.842Z,47.98
2018-07-09T05:26:12.854Z,48.37
2018-07-09T05:27:12.846Z,48.54
2018-07-09T05:28:12.850Z,48.83
2018-07-09T05:29:12.860Z,50.35
2018-07-09T05:30:12.860Z,50.02
2018-07-09T05:31:12.861Z,50.74
2018-07-09T05:32:12.859Z,54.10
2018-07-09T05:33:12.868Z,55.65
2018-07-09T05:34:12.871Z,54.94
2018-07-09T05:35:12.883Z,56.00
2018-07-09T05:36:12.866Z,55.98
2018-07-09T05:37:12.870Z,57.59
2018-07-09T05:38:12.878Z,57.97
2018-07-09T05:39:12.878Z,59.32
2018-07-09T05:40:12.879Z,58.26
2018-07-09T05:41:12.871Z,57.68
2018-07-09T05:42:12.869Z,58.26
2018-07-09T05:43:12.872Z,58.26
2018-07-09T05:44:12.876Z,58.45
2018-07-09T05:45:12.873Z,57.10
2018-07-09T05:46:12.870Z,56.62
2018-07-09T05:47:12.874Z,58.75
2018-07-09T05:48:12.869Z,58.36
2018-07-09T05:49:12.875Z,58.19
2018-07-09T05:50:12.884Z,59.64
2018-07-09T05:51:12.871Z,56.46
2018-07-09T05:52:12.885Z,57.04
2018-07-09T05:53:12.875Z,56.94
2018-07-09T05:54:12.874Z,56.26
2018-07-09T05:55:12.869Z,56.91
2018-07-09T05:56:12.866Z,58.23
2018-07-09T05:57:12.873Z,59.10
2018-07-09T05:58:12.877Z,57.56
2018-07-09T05:59:12.868Z,60.06
2018-07-09T06:00:12.869Z,60.06
2018-07-09T06:01:12.867Z,60.68
2018-07-09T06:02:12.870Z,59.45
2018-07-09T06:03:12.867Z,58.68
2018-07-09T06:04:12.866Z,57.84
2018-07-09T06:05:12.869Z,56.87
2018-07-09T06:06:12.868Z,56.10
2018-07-09T06:07:12.868Z,55.93
2018-07-09T06:08:12.861Z,56.13
2018-07-09T06:09:12.869Z,55.07
2018-07-09T06:10:12.865Z,54.68
2018-07-09T06:11:12.901Z,54.00
2018-07-09T06:12:12.863Z,54.49
2018-07-09T06:13:12.880Z,54.10
2018-07-09T06:14:12.859Z,52.39
2018-07-09T06:15:12.858Z,52.67
2018-07-09T06:16:12.860Z,52.84
2018-07-09T06:17:12.858Z,53.03
2018-07-09T06:18:12.856Z,53.88
2018-07-09T06:19:12.885Z,54.65
2018-07-09T06:20:12.860Z,55.98
2018-07-09T06:21:12.858Z,56.81
2018-07-09T06:22:12.869Z,58.07
2018-07-09T06:23:12.863Z,58.75
2018-07-09T06:24:12.865Z,57.29
2018-07-09T06:25:12.871Z,57.29
2018-07-09T06:26:12.857Z,59.03
2018-07-09T06:27:12.864Z,58.48
2018-07-09T06:28:12.854Z,58.29
2018-07-09T06:29:12.862Z,56.74
2018-07-09T06:30:12.860Z,56.74
2018-07-09T06:31:12.861Z,57.04
2018-07-09T06:32:12.856Z,56.87
2018-07-09T06:33:12.852Z,57.54
2018-07-09T06:34:12.851Z,55.65
2018-07-09T06:35:12.853Z,54.58
2018-07-09T06:36:12.857Z,53.59
2018-07-09T06:37:12.850Z,53.11
2018-07-09T06:38:12.849Z,54.94
2018-07-09T06:39:12.847Z,56.00
2018-07-09T06:40:12.862Z,55.74
2018-07-09T06:41:12.847Z,55.45
2018-07-09T06:42:12.848Z,55.09
2018-07-09T06:43:12.847Z,54.03
2018-07-09T06:44:12.845Z,53.35
2018-07-09T06:45:12.849Z,52.65
2018-07-09T06:46:12.843Z,53.83
2018-07-09T06:47:12.845Z,54.19
2018-07-09T06:48:12.874Z,54.41
2018-07-09T06:49:12.845Z,52.77
2018-07-09T06:50:12.852Z,52.97
2018-07-09T06:51:12.862Z,52.51
2018-07-09T06:52:12.853Z,53.28
2018-07-09T06:53:12.842Z,51.23
2018-07-09T06:54:12.845Z,51.59
2018-07-09T06:55:12.844Z,51.87
2018-07-09T06:56:12.850Z,53.42
2018-07-09T06:57:12.852Z,53.23
2018-07-09T06:58:12.852Z,52.48
2018-07-09T06:59:12.842Z,50.93
2018-07-09T07:00:12.848Z,50.48
2018-07-09T07:01:12.845Z,49.99
2018-07-09T07:02:12.866Z,49.99
2018-07-09T07:03:12.842Z,50.09
2018-07-09T07:04:12.841Z,48.83
2018-07-09T07:05:12.852Z,47.89
2018-07-09T07:06:12.850Z,47.60
2018-07-09T07:07:12.843Z,46.53
2018-07-09T07:08:12.846Z,46.78
2018-07-09T07:09:13.015Z,46.78
2018-07-09T07:10:12.851Z,46.90
2018-07-09T07:11:12.858Z,48.54
2018-07-09T07:12:12.855Z,47.38
2018-07-09T07:13:12.844Z,48.37
2018-07-09T07:14:12.860Z,47.31
2018-07-09T07:15:12.851Z,47.48
2018-07-09T07:16:12.846Z,47.86
2018-07-09T07:17:12.844Z,49.41
2018-07-09T07:18:12.844Z,48.66
2018-07-09T07:19:12.846Z,47.41
2018-07-09T07:20:12.844Z,44.70
2018-07-09T07:21:12.844Z,46.34
2018-07-09T07:22:12.847Z,45.76
2018-07-09T07:23:12.846Z,45.30
2018-07-09T07:24:12.854Z,44.43
2018-07-09T07:25:12.853Z,43.65
2018-07-09T07:26:12.863Z,44.81
2018-07-09T07:27:12.855Z,43.38
2018-07-09T07:28:12.849Z,44.43
2018-07-09T07:29:12.853Z,44.16
2018-07-09T07:30:12.848Z,43.55
2018-07-09T07:31:12.850Z,44.91
2018-07-09T07:32:12.863Z,45.30
2018-07-09T07:33:12.882Z,45.10
2018-07-09T07:34:12.851Z,45.32
2018-07-09T07:35:12.853Z,44.84
2018-07-09T07:36:12.852Z,41.55
2018-07-09T07:37:12.858Z,42.20
2018-07-09T07:38:12.858Z,42.86
2018-07-09T07:39:12.862Z,43.85
2018-07-09T07:40:12.857Z,43.07
2018-07-09T07:41:12.856Z,41.50
2018-07-09T07:42:12.858Z,41.41
2018-07-09T07:43:12.863Z,42.37
2018-07-09T07:44:12.858Z,43.92
2018-07-09T07:45:12.867Z,43.34
2018-07-09T07:46:12.860Z,43.63
2018-07-09T07:47:12.875Z,42.97
2018-07-09T07:48:12.860Z,42.20
2018-07-09T07:49:12.871Z,42.20
2018-07-09T07:50:12.926Z,42.00
2018-07-09T07:51:12.870Z,41.93
2018-07-09T07:52:12.872Z,40.38
2018-07-09T07:53:12.870Z,40.77
2018-07-09T07:54:12.865Z,41.35
2018-07-09T07:55:12.865Z,42.80
2018-07-09T07:56:12.877Z,42.22
2018-07-09T07:57:12.876Z,42.13
2018-07-09T07:58:12.868Z,42.63
2018-07-09T07:59:12.871Z,42.24
2018-07-09T08:00:12.872Z,41.66
2018-07-09T08:01:12.875Z,40.81
2018-07-09T08:02:12.877Z,41.10
2018-07-09T08:03:12.874Z,40.11
2018-07-09T08:04:12.875Z,39.92
2018-07-09T08:05:12.879Z,41.06
2018-07-09T08:06:12.876Z,40.96
2018-07-09T08:07:12.882Z,40.09
2018-07-09T08:08:12.887Z,39.12
2018-07-09T08:09:12.925Z,39.22
2018-07-09T08:10:12.887Z,40.21
2018-07-09T08:11:12.888Z,39.53
2018-07-09T08:13:00.533Z,39.04
2018-07-09T08:13:27.989Z,39.24
2018-07-09T08:14:12.892Z,38.85
2018-07-09T08:15:12.897Z,38.56
2018-07-09T08:16:12.890Z,38.66
2018-07-09T08:17:12.888Z,39.12
2018-07-09T08:18:12.894Z,40.00
2018-07-09T08:19:12.898Z,40.09
2018-07-09T08:20:12.903Z,39.61
2018-07-09T08:21:12.895Z,40.00
2018-07-09T08:22:12.899Z,39.24
2018-07-09T08:23:12.910Z,38.95
2018-07-09T08:24:12.903Z,39.03
2018-07-09T08:25:12.904Z,40.58
2018-07-09T08:26:12.899Z,39.90
2018-07-09T08:27:12.910Z,39.80
2018-07-09T08:28:12.904Z,40.96
2018-07-09T08:29:12.907Z,39.90
2018-07-09T08:30:12.903Z,38.93
2018-07-09T08:31:13.000Z,38.76
2018-07-09T08:32:12.906Z,39.04
2018-07-09T08:33:12.905Z,38.76
2018-07-09T08:34:12.906Z,39.04
2018-07-09T08:35:12.915Z,39.06
2018-07-09T08:36:12.909Z,40.13
2018-07-09T08:37:12.923Z,39.36
2018-07-09T08:38:12.919Z,39.76
2018-07-09T08:39:12.916Z,38.99
2018-07-09T08:40:12.914Z,38.81
2018-07-09T08:41:12.915Z,38.42
2018-07-09T08:42:12.929Z,38.13
2018-07-09T08:43:12.919Z,38.52
2018-07-09T08:44:12.919Z,37.86
2018-07-09T08:45:12.922Z,37.66
2018-07-09T08:46:12.922Z,37.49
2018-07-09T08:47:12.924Z,37.66
2018-07-09T08:48:12.936Z,35.82
2018-07-09T08:49:12.931Z,36.85
2018-07-09T08:50:12.940Z,37.84
2018-07-09T08:51:12.933Z,38.13
2018-07-09T08:52:12.933Z,36.95
2018-07-09T08:53:12.946Z,36.66
2018-07-09T08:54:12.948Z,36.95
2018-07-09T08:55:12.956Z,38.00
2018-07-09T08:56:12.943Z,38.39
2018-07-09T08:57:12.945Z,38.89
2018-07-09T08:58:12.954Z,37.82
2018-07-09T08:59:12.945Z,37.84
2018-07-09T09:00:12.947Z,37.35
2018-07-09T09:01:12.949Z,36.79
2018-07-09T09:02:12.961Z,34.56
2018-07-09T09:03:12.963Z,34.66
2018-07-09T09:04:12.957Z,35.16
2018-07-09T09:05:12.956Z,35.06
2018-07-09T09:06:12.960Z,35.16
2018-07-09T09:07:12.962Z,36.89
2018-07-09T09:08:12.972Z,35.72
2018-07-09T09:09:12.965Z,35.45
2018-07-09T09:10:13.003Z,35.84
2018-07-09T09:11:12.969Z,34.28
2018-07-09T09:12:12.973Z,33.41
2018-07-09T09:13:12.974Z,33.43
2018-07-09T09:14:12.976Z,34.20
2018-07-09T09:15:12.990Z,34.01
2018-07-09T09:16:12.983Z,34.59
2018-07-09T09:17:12.982Z,35.08
2018-07-09T09:18:13.000Z,34.80
2018-07-09T09:19:12.996Z,35.49
2018-07-09T09:20:12.995Z,34.03
2018-07-09T09:21:12.996Z,33.75
2018-07-09T09:22:12.997Z,33.56
2018-07-09T09:23:13.010Z,32.20
2018-07-09T09:24:13.000Z,31.61
2018-07-09T09:25:13.000Z,31.61
2018-07-09T09:26:13.004Z,30.91
2018-07-09T09:27:13.007Z,31.51
2018-07-09T09:28:13.017Z,31.60
2018-07-09T09:29:13.011Z,31.32
2018-07-09T09:30:13.018Z,31.61
2018-07-09T09:31:13.035Z,31.81
2018-07-09T09:32:13.024Z,32.00
2018-07-09T09:33:13.030Z,31.61
2018-07-09T09:34:13.025Z,31.13
2018-07-09T09:35:13.043Z,31.81
2018-07-09T09:36:13.033Z,32.39
2018-07-09T09:37:13.035Z,31.41
2018-07-09T09:38:13.050Z,31.71
2018-07-09T09:39:13.038Z,31.22
2018-07-09T09:40:13.047Z,31.71
2018-07-09T09:41:13.045Z,31.61
2018-07-09T09:42:13.049Z,31.22
2018-07-09T09:43:13.153Z,31.22
2018-07-09T09:44:13.052Z,31.71
2018-07-09T09:45:13.061Z,32.00
2018-07-09T09:46:13.066Z,32.78
2018-07-09T09:47:13.064Z,32.29
2018-07-09T09:48:13.071Z,32.29
2018-07-09T09:49:13.083Z,31.61
2018-07-09T09:50:13.085Z,32.00
2018-07-09T09:51:13.074Z,32.29
2018-07-09T09:52:13.082Z,32.29
2018-07-09T09:53:13.082Z,32.00
2018-07-09T09:54:13.083Z,32.60
2018-07-09T09:55:13.099Z,33.96
2018-07-09T09:56:13.090Z,32.70
2018-07-09T09:57:13.103Z,32.31
2018-07-09T09:58:13.109Z,32.02
2018-07-09T09:59:13.107Z,32.00
2018-07-09T10:00:13.106Z,32.29
2018-07-09T10:01:13.106Z,32.10
2018-07-09T10:02:13.112Z,32.20
2018-07-09T10:03:13.127Z,33.26
2018-07-09T10:04:13.113Z,32.59
2018-07-09T10:05:13.119Z,32.39
2018-07-09T10:06:13.210Z,31.88
2018-07-09T10:07:13.139Z,32.67
2018-07-09T10:08:13.135Z,32.68
2018-07-09T10:09:13.143Z,32.39
2018-07-09T10:10:13.134Z,31.61
2018-07-09T10:11:13.138Z,32.00
2018-07-09T10:12:13.147Z,31.82
2018-07-09T10:13:13.142Z,31.82
2018-07-09T10:14:13.144Z,31.73
2018-07-09T10:15:13.159Z,31.71
2018-07-09T10:16:13.152Z,31.61
2018-07-09T10:17:13.162Z,32.00
2018-07-09T10:18:13.157Z,31.71
2018-07-09T10:19:13.172Z,31.51
2018-07-09T10:20:13.163Z,31.51
2018-07-09T10:21:13.176Z,31.51
2018-07-09T10:22:13.171Z,31.41
2018-07-09T10:23:13.279Z,30.65
2018-07-09T10:24:13.176Z,31.43
2018-07-09T10:25:13.178Z,31.24
2018-07-09T10:26:13.188Z,31.82
2018-07-09T10:27:13.191Z,31.73
2018-07-09T10:28:13.188Z,31.73
2018-07-09T10:29:13.201Z,31.63
2018-07-09T10:30:13.196Z,31.63
2018-07-09T10:31:13.212Z,31.43
2018-07-09T10:32:13.203Z,31.82
2018-07-09T10:33:13.206Z,31.53
2018-07-09T10:34:13.215Z,31.73
2018-07-09T10:35:13.219Z,31.61
2018-07-09T10:36:13.226Z,31.13
2018-07-09T10:37:13.225Z,31.24
2018-07-09T10:38:13.219Z,31.82
2018-07-09T10:39:13.223Z,31.53
2018-07-09T10:40:13.230Z,31.73
2018-07-09T10:41:13.235Z,32.00
2018-07-09T10:42:13.246Z,32.59
2018-07-09T10:43:13.243Z,32.00
2018-07-09T10:44:13.243Z,33.26
2018-07-09T10:45:13.243Z,32.59
2018-07-09T10:46:13.247Z,32.78
2018-07-09T10:47:13.285Z,32.89
2018-07-09T10:48:13.262Z,32.70
2018-07-09T10:49:13.260Z,32.50
2018-07-09T10:50:13.261Z,32.70
2018-07-09T10:51:13.269Z,31.73
2018-07-09T10:52:13.267Z,31.34
2018-07-09T10:53:13.286Z,31.34
2018-07-09T10:54:13.281Z,31.53
2018-07-09T10:55:13.338Z,30.75
2018-07-09T10:56:13.276Z,30.85
2018-07-09T10:57:13.279Z,31.43
2018-07-09T10:58:13.287Z,30.87
2018-07-09T10:59:13.294Z,30.87
2018-07-09T11:00:13.296Z,31.45
2018-07-09T11:01:13.295Z,31.54
2018-07-09T11:02:13.296Z,31.45
2018-07-09T11:03:13.308Z,31.74
2018-07-09T11:04:13.312Z,30.96
2018-07-09T11:05:13.315Z,31.27
2018-07-09T11:06:13.309Z,30.10
2018-07-09T11:07:13.325Z,30.58
2018-07-09T11:08:13.329Z,30.29
2018-07-09T11:09:13.321Z,30.10
2018-07-09T11:10:13.426Z,30.58
2018-07-09T11:11:13.335Z,30.68
2018-07-09T11:12:13.416Z,30.18
2018-07-09T11:13:13.334Z,29.99
2018-07-09T11:14:13.383Z,30.57
2018-07-09T11:15:13.352Z,30.58
2018-07-09T11:16:13.497Z,30.98
2018-07-09T11:17:13.349Z,30.58
2018-07-09T11:18:13.351Z,30.00
2018-07-09T11:19:13.361Z,30.49
2018-07-09T11:20:13.368Z,30.88
2018-07-09T11:21:13.365Z,29.82
2018-07-09T11:22:13.367Z,29.63
2018-07-09T11:23:13.380Z,29.92
2018-07-09T11:24:13.374Z,29.92
2018-07-09T11:25:13.387Z,30.80
2018-07-09T11:26:13.382Z,30.52
2018-07-09T11:27:13.399Z,29.63
2018-07-09T11:28:13.395Z,28.75
2018-07-09T11:29:13.405Z,28.55
2018-07-09T11:30:13.397Z,27.78
2018-07-09T11:31:13.403Z,29.04
2018-07-09T11:32:13.412Z,28.64
2018-07-09T11:33:13.406Z,28.74
2018-07-09T11:34:13.410Z,28.83
2018-07-09T11:35:13.417Z,28.44
2018-07-09T11:36:13.429Z,28.74
2018-07-09T11:37:13.423Z,28.54
2018-07-09T11:38:13.425Z,28.64
2018-07-09T11:39:13.439Z,27.48
2018-07-09T11:40:13.432Z,27.97
2018-07-09T11:41:13.451Z,27.87
2018-07-09T11:42:13.468Z,28.55
2018-07-09T11:43:13.444Z,27.87
2018-07-09T11:44:13.459Z,27.78
2018-07-09T11:45:13.453Z,27.47
2018-07-09T11:46:13.458Z,27.37
2018-07-09T11:47:13.459Z,27.76
2018-07-09T11:48:13.468Z,28.07
2018-07-09T11:49:13.470Z,28.15
2018-07-09T11:50:13.472Z,26.70
2018-07-09T11:51:13.475Z,26.79
2018-07-09T11:52:13.504Z,26.69
2018-07-09T11:53:13.492Z,26.59
2018-07-09T11:54:13.487Z,26.21
2018-07-09T11:55:13.491Z,26.31
2018-07-09T11:56:13.498Z,27.39
2018-07-09T11:57:13.499Z,27.39
2018-07-09T11:58:13.508Z,26.90
2018-07-09T11:59:13.508Z,26.72
2018-07-09T12:00:13.521Z,26.32
2018-07-09T12:01:13.518Z,26.42
2018-07-09T12:02:13.520Z,25.45
2018-07-09T12:03:13.525Z,24.96
2018-07-09T12:04:13.535Z,24.76
2018-07-09T12:05:13.532Z,25.82
2018-07-09T12:06:13.540Z,25.73
2018-07-09T12:07:13.542Z,25.82
2018-07-09T12:08:13.543Z,24.95
2018-07-09T12:09:13.547Z,24.95
2018-07-09T12:10:13.556Z,24.76
2018-07-09T12:11:13.565Z,25.25
2018-07-09T12:12:13.579Z,25.07
2018-07-09T12:13:13.564Z,25.07
2018-07-09T12:14:13.569Z,23.72
2018-07-09T12:15:13.585Z,23.41
2018-07-09T12:16:13.581Z,23.79
2018-07-09T12:17:13.580Z,23.40
2018-07-09T12:18:13.582Z,23.60
2018-07-09T12:19:13.595Z,23.69
2018-07-09T12:20:13.593Z,24.56
2018-07-09T12:21:13.599Z,24.57
2018-07-09T12:22:13.610Z,23.78
2018-07-09T12:23:13.705Z,23.89
2018-07-09T12:24:13.609Z,23.78
2018-07-09T12:25:13.622Z,23.40
2018-07-09T12:26:13.622Z,23.68
2018-07-09T12:27:13.631Z,23.99
2018-07-09T12:28:13.627Z,23.99
2018-07-09T12:29:13.736Z,23.99
2018-07-09T12:30:13.640Z,23.89
2018-07-09T12:31:13.651Z,24.96
2018-07-09T12:32:13.650Z,24.48
2018-07-09T12:33:13.656Z,24.07
2018-07-09T12:34:13.650Z,24.46
2018-07-09T12:35:13.656Z,23.97
2018-07-09T12:36:13.764Z,24.56
2018-07-09T12:37:13.666Z,24.67
2018-07-09T12:38:13.675Z,24.77
2018-07-09T12:39:13.683Z,24.46
2018-07-09T12:40:13.676Z,24.08
2018-07-09T12:41:13.690Z,24.76
2018-07-09T12:42:13.682Z,22.71
2018-07-09T12:43:13.694Z,23.19
2018-07-09T12:44:13.693Z,24.17
2018-07-09T12:45:13.702Z,23.49
2018-07-09T12:46:13.699Z,24.07
2018-07-09T12:47:13.708Z,24.66
2018-07-09T12:48:13.705Z,24.85
2018-07-09T12:49:13.712Z,25.82
2018-07-09T12:50:13.728Z,24.95
2018-07-09T12:51:13.721Z,25.54
2018-07-09T12:52:13.723Z,25.45